»·PEaware :: DAL1644 KSLC-KPDX

DAL1644 :: KSLC-KPDX

FLIGHT INFORMATION

Flight Status: Arrived
Operator:
Delta Air Lines
More flights by this operator :: More flights under this callsign
Pilot: Joe P. (13940)
Aircraft: BOEING 737-700
(B737)
More flights by this aircraft type
Origin: KSLC Salt Lake City Intl
United States
Destination: KPDX Portland Intl
United States
More flights between these airports :: More routes between these airports
Route: CGULL1 TWF J15 BOI J163 BKE JOTBA HHOOD4
File this flight plan on PilotEdge
Remarks: KSEA -PBN / A1B1C1D1L1O1S1 NAV / RNVD1E2A1 DOF / 181007 REG / N389DA EET / KZSE0055 RVR / 200 PER / C
Altitude:
(Current/Filed)
340ft
Speed:
(Current/Filed)
453kts
Departed: 06-Oct-18 05:39 PM
Arrived: 06-Oct-18 07:10 PM
Distance/Time
Traveled:
546nm/1:31
Distance/Time
To Go:
Arrived

Flight Plot

Page will automatically refresh every two minutes.

Flight plan parsing failed; only flown route is shown


Map Options




Map Legend


Flown Route
Filed Route
Departure Airport
Arrival Airport
Navaid (VOR, NDB)
Fix

Horizontal Profiles

Position Reports

Time Latitude Longitude Heading Altitude Ground
Speed
06-Oct-18 16:50 40.788533 -111.980747 280 4235ft 0kts
06-Oct-18 16:51 40.788533 -111.980747 280 4235ft 0kts
06-Oct-18 16:52 40.788533 -111.980747 280 4235ft 0kts
06-Oct-18 16:53 40.788533 -111.980747 280 4235ft 0kts
06-Oct-18 16:54 40.788533 -111.980747 280 4235ft 0kts
06-Oct-18 16:55 40.788533 -111.980747 280 4235ft 0kts
06-Oct-18 16:56 40.788533 -111.980747 280 4235ft 0kts
06-Oct-18 16:57 40.788533 -111.980747 280 4235ft 0kts
06-Oct-18 16:58 40.788533 -111.980747 280 4235ft 0kts
06-Oct-18 16:59 40.788533 -111.980747 280 4235ft 0kts
06-Oct-18 17:00 40.788533 -111.980747 280 4235ft 0kts
06-Oct-18 17:01 40.788533 -111.980747 280 4235ft 0kts
06-Oct-18 17:02 40.788533 -111.980747 280 4235ft 0kts
06-Oct-18 17:03 40.788533 -111.980747 280 4235ft 0kts
06-Oct-18 17:04 40.788533 -111.980747 280 4235ft 0kts
06-Oct-18 17:05 40.788533 -111.980747 280 4235ft 0kts
06-Oct-18 17:06 40.788533 -111.980747 280 4235ft 0kts
06-Oct-18 17:07 40.788533 -111.980747 280 4235ft 0kts
06-Oct-18 17:08 40.788533 -111.980747 280 4235ft 0kts
06-Oct-18 17:09 40.788533 -111.980747 280 4235ft 0kts
06-Oct-18 17:10 40.788533 -111.980747 280 4235ft 0kts
06-Oct-18 17:11 40.788533 -111.980747 280 4235ft 0kts
06-Oct-18 17:12 40.788533 -111.980747 280 4235ft 0kts
06-Oct-18 17:13 40.788533 -111.980747 280 4235ft 0kts
06-Oct-18 17:14 40.788533 -111.980747 280 4235ft 0kts
06-Oct-18 17:15 40.788533 -111.980747 280 4235ft 0kts
06-Oct-18 17:16 40.788533 -111.980747 280 4235ft 0kts
06-Oct-18 17:17 40.788533 -111.980747 280 4235ft 0kts
06-Oct-18 17:18 40.788533 -111.980747 280 4235ft 0kts
06-Oct-18 17:19 40.788533 -111.980747 280 4235ft 0kts
06-Oct-18 17:20 40.788533 -111.980747 280 4235ft 0kts
06-Oct-18 17:21 40.788533 -111.980747 280 4235ft 0kts
06-Oct-18 17:22 40.788533 -111.980747 280 4235ft 0kts
06-Oct-18 17:23 40.788533 -111.980747 280 4235ft 0kts
06-Oct-18 17:24 40.788533 -111.980747 280 4235ft 0kts
06-Oct-18 17:25 40.788533 -111.980747 280 4235ft 0kts
06-Oct-18 17:26 40.788533 -111.980747 280 4235ft 0kts
06-Oct-18 17:27 40.788425 -111.980013 280 4235ft 2kts
06-Oct-18 17:28 40.788362 -111.979584 280 4235ft 0kts
06-Oct-18 17:29 40.788362 -111.979584 280 4235ft 0kts
06-Oct-18 17:30 40.788362 -111.979584 280 4235ft 0kts
06-Oct-18 17:31 40.788362 -111.979584 280 4235ft 0kts
06-Oct-18 17:32 40.788362 -111.979584 280 4235ft 0kts
06-Oct-18 17:33 40.788362 -111.979584 280 4235ft 0kts
06-Oct-18 17:34 40.788363 -111.979586 280 4235ft 0kts
06-Oct-18 17:35 40.789678 -111.978781 83 4235ft 16kts
06-Oct-18 17:36 40.786014 -111.976688 175 4235ft 19kts
06-Oct-18 17:37 40.779821 -111.975831 160 4235ft 20kts
06-Oct-18 17:38 40.775309 -111.975015 174 4235ft 6kts
06-Oct-18 17:39 40.774466 -111.974101 73 4234ft 6kts
06-Oct-18 17:40 40.775459 -111.973208 352 4235ft 0kts
06-Oct-18 17:41 40.799341 -111.975779 354 4720ft 174kts
06-Oct-18 17:42 40.830943 -112.019011 302 7420ft 201kts
06-Oct-18 17:43 40.871377 -112.089938 309 9326ft 261kts
06-Oct-18 17:44 40.917733 -112.167531 308 12473ft 276kts
06-Oct-18 17:45 40.966432 -112.249912 308 15225ft 292kts
06-Oct-18 17:46 41.017105 -112.336029 306 17828ft 299kts
06-Oct-18 17:47 41.071065 -112.423215 317 20081ft 313kts
06-Oct-18 17:48 41.148973 -112.492394 325 21107ft 365kts
06-Oct-18 17:49 41.236514 -112.577321 320 21714ft 414kts
06-Oct-18 17:50 41.322427 -112.683859 309 22905ft 431kts
06-Oct-18 17:51 41.403030 -112.802686 309 24448ft 437kts
06-Oct-18 17:52 41.483657 -112.926031 307 25932ft 446kts
06-Oct-18 17:53 41.565994 -113.052887 307 27446ft 456kts
06-Oct-18 17:54 41.649911 -113.182290 307 28781ft 465kts
06-Oct-18 17:55 41.734108 -113.312128 306 30476ft 461kts
06-Oct-18 17:56 41.817430 -113.441578 306 32072ft 457kts
06-Oct-18 17:57 41.899969 -113.570452 307 33541ft 453kts
06-Oct-18 17:58 41.982562 -113.699641 307 33975ft 455kts
06-Oct-18 17:59 42.064051 -113.827956 307 33978ft 451kts
06-Oct-18 18:00 42.145466 -113.957089 307 33980ft 451kts
06-Oct-18 18:01 42.226270 -114.085138 307 33983ft 451kts
06-Oct-18 18:02 42.308070 -114.214536 307 33985ft 450kts
06-Oct-18 18:03 42.389085 -114.343688 307 33988ft 449kts
06-Oct-18 18:04 42.469551 -114.472814 307 33989ft 449kts
06-Oct-18 18:05 42.551598 -114.600560 309 33989ft 450kts
06-Oct-18 18:06 42.633676 -114.728131 309 33990ft 447kts
06-Oct-18 18:07 42.715061 -114.855174 310 33990ft 445kts
06-Oct-18 18:08 42.796619 -114.982038 310 34005ft 445kts
06-Oct-18 18:09 42.877468 -115.108845 310 34011ft 443kts
06-Oct-18 18:10 42.958111 -115.236057 310 34010ft 443kts
06-Oct-18 18:11 43.038510 -115.363442 310 34006ft 441kts
06-Oct-18 18:12 43.118538 -115.490828 310 34006ft 441kts
06-Oct-18 18:13 43.198176 -115.618160 310 34006ft 440kts
06-Oct-18 18:14 43.277512 -115.745571 310 34008ft 439kts
06-Oct-18 18:15 43.356517 -115.872775 311 34014ft 437kts
06-Oct-18 18:16 43.435392 -116.000336 310 34023ft 436kts
06-Oct-18 18:17 43.512885 -116.126799 311 34028ft 432kts
06-Oct-18 18:18 43.596282 -116.245541 319 34030ft 431kts
06-Oct-18 18:19 43.686054 -116.355192 319 34035ft 430kts
06-Oct-18 18:20 43.775473 -116.465202 319 34040ft 429kts
06-Oct-18 18:21 43.864646 -116.574740 319 34047ft 428kts
06-Oct-18 18:22 43.953508 -116.684362 319 34061ft 425kts
06-Oct-18 18:23 44.041509 -116.793601 320 34076ft 420kts
06-Oct-18 18:24 44.128153 -116.901666 320 34078ft 417kts
06-Oct-18 18:25 44.213857 -117.009023 320 34080ft 413kts
06-Oct-18 18:26 44.298979 -117.116096 321 34086ft 410kts
06-Oct-18 18:27 44.383338 -117.222642 321 34094ft 407kts
06-Oct-18 18:28 44.467161 -117.328946 321 34110ft 405kts
06-Oct-18 18:29 44.550461 -117.435020 321 34125ft 404kts
06-Oct-18 18:30 44.633448 -117.540790 321 34137ft 402kts
06-Oct-18 18:31 44.715966 -117.646700 321 34145ft 401kts
06-Oct-18 18:32 44.798187 -117.752956 321 34148ft 400kts
06-Oct-18 18:33 44.849423 -117.894221 289 34150ft 426kts
06-Oct-18 18:34 44.872402 -118.058437 289 34157ft 425kts
06-Oct-18 18:35 44.893866 -118.222113 289 34167ft 424kts
06-Oct-18 18:36 44.915194 -118.385035 290 34175ft 422kts
06-Oct-18 18:37 44.936189 -118.548002 290 34180ft 422kts
06-Oct-18 18:38 44.956747 -118.711269 290 34188ft 421kts
06-Oct-18 18:39 44.976880 -118.873708 290 34188ft 420kts
06-Oct-18 18:40 44.996721 -119.035947 290 34201ft 418kts
06-Oct-18 18:41 45.016251 -119.197693 290 34204ft 417kts
06-Oct-18 18:42 45.035506 -119.359183 291 34203ft 416kts
06-Oct-18 18:43 45.054527 -119.520710 291 34204ft 415kts
06-Oct-18 18:44 45.073206 -119.681377 291 34205ft 414kts
06-Oct-18 18:45 45.091622 -119.841783 291 33363ft 408kts
06-Oct-18 18:46 45.109556 -119.999963 292 30871ft 401kts
06-Oct-18 18:47 45.126952 -120.152458 293 28937ft 382kts
06-Oct-18 18:48 45.143083 -120.298684 292 27074ft 369kts
06-Oct-18 18:49 45.158315 -120.440295 291 25253ft 359kts
06-Oct-18 18:50 45.188268 -120.571868 306 23588ft 360kts
06-Oct-18 18:51 45.234643 -120.694774 306 22088ft 351kts
06-Oct-18 18:52 45.281437 -120.816197 305 20619ft 347kts
06-Oct-18 18:53 45.326875 -120.935481 304 19183ft 340kts
06-Oct-18 18:54 45.371627 -121.053398 304 17537ft 340kts
06-Oct-18 18:55 45.415863 -121.169867 303 16093ft 330kts
06-Oct-18 18:56 45.446996 -121.294193 290 14695ft 335kts
06-Oct-18 18:57 45.471216 -121.419104 291 13326ft 318kts
06-Oct-18 18:58 45.494902 -121.538051 290 12022ft 306kts
06-Oct-18 18:59 45.516671 -121.649219 289 10811ft 281kts
06-Oct-18 19:00 45.531798 -121.757121 276 10021ft 272kts
06-Oct-18 19:01 45.535138 -121.867401 274 8516ft 282kts
06-Oct-18 19:02 45.538969 -121.972944 275 7408ft 249kts
06-Oct-18 19:03 45.532622 -122.063067 239 6558ft 224kts
06-Oct-18 19:04 45.496439 -122.133764 236 5660ft 217kts
06-Oct-18 19:05 45.470441 -122.207953 258 4460ft 209kts
06-Oct-18 19:06 45.473209 -122.285103 298 3978ft 190kts
06-Oct-18 19:07 45.494061 -122.337804 299 3591ft 176kts
06-Oct-18 19:08 45.519525 -122.402794 299 2598ft 150kts
06-Oct-18 19:09 45.536414 -122.446003 298 1933ft 149kts
06-Oct-18 19:10 45.556500 -122.497432 298 1144ft 148kts
06-Oct-18 19:11 45.579805 -122.557330 299 158ft 148kts
06-Oct-18 19:12 45.592622 -122.590023 294 26ft 40kts
06-Oct-18 19:13 45.594270 -122.595398 241 26ft 0kts
06-Oct-18 19:14 45.594263 -122.595417 241 26ft 1kts
06-Oct-18 19:15 45.592686 -122.596093 117 26ft 8kts
06-Oct-18 19:16 45.591349 -122.594074 206 26ft 3kts
06-Oct-18 19:17 45.591267 -122.594133 206 26ft 0kts
06-Oct-18 19:18 45.591267 -122.594133 206 26ft 0kts
06-Oct-18 19:19 45.591267 -122.594133 206 26ft 0kts
06-Oct-18 19:20 45.591267 -122.594133 206 26ft 0kts

Navigation Log

Ident Type
Flight plan parsing failed, navigation log unavailable